Odin — HKNM — position and weather

sailwx.info

Track history (hours):
 
Tides and Currents Weather Stations Pressure Air Temp Water Temp Dewpoint Dewpoint Depression Visibility Wind Speed Wind Dir Waves Ship Positions

Odin

Last reported at 2017-Nov-23 01:30 UTC. Time now 2017-Nov-23 01:56 UTC.
Position N 10°58' W 074°46'.

Length 23 m; draft 3.9 m.

Type: Tug. MMSI: 730044000.

Date/timePositionNaut miles runAvg speedWind from/ knotsBaromVisibWave heightAir tempDewpointWater temp
2017-Nov-23 01:30N 10°58' W 074°46'0 0.0
2017-Nov-23 01:00N 10°58' W 074°46'0 0.0
2017-Nov-23 00:30N 10°58' W 074°46'0 0.0
2017-Nov-23 00:00N 10°58' W 074°46'0 0.0
2017-Nov-22 23:30N 10°58' W 074°46'0 0.0
2017-Nov-22 23:00N 10°58' W 074°46'0 0.0
2017-Nov-22 22:30N 10°58' W 074°46'0 0.0
2017-Nov-22 22:00N 10°58' W 074°46'0 0.0
2017-Nov-22 21:30N 10°58' W 074°46'0 0.0
2017-Nov-22 21:00N 10°58' W 074°46'0 0.0
2017-Nov-22 20:30N 10°58' W 074°46'0 0.0
2017-Nov-22 20:00N 10°58' W 074°46'0 0.0
2017-Nov-22 19:30N 10°58' W 074°46'  
2017-Nov-19 04:22N 10°58' W 074°45'3 0.2
2017-Nov-18 15:40N 11°01' W 074°47'1 6.8
2017-Nov-18 15:30N 11°02' W 074°47'1 1.4
2017-Nov-18 14:59N 11°02' W 074°48'0 0.1
2017-Nov-18 14:30N 11°02' W 074°48'2 0.1
2017-Nov-17 13:52N 11°01' W 074°47'2 1.7
2017-Nov-17 12:53N 11°02' W 074°48'0 0.0
2017-Nov-17 12:20N 11°02' W 074°48'0 0.0
2017-Nov-17 12:00N 11°02' W 074°48'4 1.8
2017-Nov-17 09:31N 10°58' W 074°45'0 0.0
2017-Nov-17 01:02N 10°58' W 074°46'0 0.0
2017-Nov-16 12:44N 10°58' W 074°46'0 0.0
2017-Nov-16 09:37N 10°58' W 074°46'0 0.0
2017-Nov-16 09:30N 10°58' W 074°46'1 0.1
2017-Nov-16 03:27N 10°58' W 074°45'1 0.1
2017-Nov-15 19:42N 10°58' W 074°46'0 0.0
2017-Nov-14 20:27N 10°58' W 074°46'0 0.0
2017-Nov-14 20:00N 10°58' W 074°46'0 0.0
2017-Nov-14 19:30N 10°58' W 074°46'0 0.0
2017-Nov-14 18:59N 10°58' W 074°46'0 0.0
2017-Nov-14 18:30N 10°58' W 074°46'0 0.0
2017-Nov-14 18:00N 10°58' W 074°46'0 0.0
2017-Nov-14 17:30N 10°58' W 074°46'0 0.0
2017-Nov-14 17:00N 10°58' W 074°46'1 1.9
2017-Nov-14 16:30N 10°59' W 074°45'0 0.1
2017-Nov-14 16:00N 10°59' W 074°45'1 1.9
2017-Nov-14 15:30N 10°58' W 074°46'0 0.0
2017-Nov-14 15:00N 10°58' W 074°46'0 0.0
2017-Nov-14 14:30N 10°58' W 074°46'0 0.0
2017-Nov-14 14:00N 10°58' W 074°46'1 1.1
2017-Nov-14 13:30N 10°58' W 074°45'0 0.7
2017-Nov-14 13:00N 10°58' W 074°46'0 0.0
2017-Nov-14 12:30N 10°58' W 074°46'0 0.0
2017-Nov-14 12:00N 10°58' W 074°46'0 0.0
2017-Nov-14 11:30N 10°58' W 074°46'0 0.0
2017-Nov-14 11:00N 10°58' W 074°46'0 0.0
2017-Nov-14 10:30N 10°58' W 074°46'0 0.0
2017-Nov-14 10:00N 10°58' W 074°46'0 0.0
2017-Nov-14 09:30N 10°58' W 074°46'0 0.0
2017-Nov-14 08:07N 10°58' W 074°46'0 0.0
2017-Nov-14 08:00N 10°58' W 074°46'0 0.0
2017-Nov-14 07:30N 10°58' W 074°46'0 0.0
2017-Nov-14 07:00N 10°58' W 074°46'0 0.0
2017-Nov-14 06:30N 10°58' W 074°46'0 0.0
2017-Nov-14 06:00N 10°58' W 074°46'0 0.0
2017-Nov-14 05:30N 10°58' W 074°46'0 0.0
2017-Nov-14 04:59N 10°58' W 074°46'0 0.0
2017-Nov-14 04:30N 10°58' W 074°46'0 0.0
2017-Nov-14 04:00N 10°58' W 074°46'0 0.2
2017-Nov-14 03:30N 10°58' W 074°45'0 0.2
2017-Nov-14 02:58N 10°58' W 074°46'0 0.0
2017-Nov-14 02:30N 10°58' W 074°46'0 0.0
2017-Nov-14 01:59N 10°58' W 074°46'0 0.0
2017-Nov-14 01:30N 10°58' W 074°46'0 0.0
2017-Nov-14 01:00N 10°58' W 074°46'0 0.0
2017-Nov-14 00:30N 10°58' W 074°46'0 0.0
2017-Nov-14 00:00N 10°58' W 074°46'0 0.0
2017-Nov-13 23:30N 10°58' W 074°46'0 0.0
2017-Nov-13 22:58N 10°58' W 074°46'0 0.0
2017-Nov-13 22:30N 10°58' W 074°46'0 0.0
2017-Nov-13 22:00N 10°58' W 074°46'0 0.0
2017-Nov-13 02:00N 10°58' W 074°46'0 0.0
2017-Nov-13 01:30N 10°58' W 074°46'  
Track history (hours):
 
Tides and Currents Weather Stations Pressure Air Temp Water Temp Dewpoint Dewpoint Depression Visibility Wind Speed Wind Dir Waves Ship Positions

Odin

Last reported at 2017-Nov-23 01:30 UTC. Time now 2017-Nov-23 01:56 UTC.
Position N 10°58' W 074°46'.

Length 23 m; draft 3.9 m.

Type: Tug. MMSI: 730044000.

Date/timePositionNaut miles runAvg speedWind from/ knotsBaromVisibWave heightAir tempDewpointWater temp
2017-Nov-23 01:30N 10°58' W 074°46'0 0.0
2017-Nov-23 01:00N 10°58' W 074°46'0 0.0
2017-Nov-23 00:30N 10°58' W 074°46'0 0.0
2017-Nov-23 00:00N 10°58' W 074°46'0 0.0
2017-Nov-22 23:30N 10°58' W 074°46'0 0.0
2017-Nov-22 23:00N 10°58' W 074°46'0 0.0
2017-Nov-22 22:30N 10°58' W 074°46'0 0.0
2017-Nov-22 22:00N 10°58' W 074°46'0 0.0
2017-Nov-22 21:30N 10°58' W 074°46'0 0.0
2017-Nov-22 21:00N 10°58' W 074°46'0 0.0
2017-Nov-22 20:30N 10°58' W 074°46'0 0.0
2017-Nov-22 20:00N 10°58' W 074°46'0 0.0
2017-Nov-22 19:30N 10°58' W 074°46'  
2017-Nov-19 04:22N 10°58' W 074°45'3 0.2
2017-Nov-18 15:40N 11°01' W 074°47'1 6.8
2017-Nov-18 15:30N 11°02' W 074°47'1 1.4
2017-Nov-18 14:59N 11°02' W 074°48'0 0.1
2017-Nov-18 14:30N 11°02' W 074°48'2 0.1
2017-Nov-17 13:52N 11°01' W 074°47'2 1.7
2017-Nov-17 12:53N 11°02' W 074°48'0 0.0
2017-Nov-17 12:20N 11°02' W 074°48'0 0.0
2017-Nov-17 12:00N 11°02' W 074°48'4 1.8
2017-Nov-17 09:31N 10°58' W 074°45'0 0.0
2017-Nov-17 01:02N 10°58' W 074°46'0 0.0
2017-Nov-16 12:44N 10°58' W 074°46'0 0.0
2017-Nov-16 09:37N 10°58' W 074°46'0 0.0
2017-Nov-16 09:30N 10°58' W 074°46'1 0.1
2017-Nov-16 03:27N 10°58' W 074°45'1 0.1
2017-Nov-15 19:42N 10°58' W 074°46'0 0.0
2017-Nov-14 20:27N 10°58' W 074°46'0 0.0
2017-Nov-14 20:00N 10°58' W 074°46'0 0.0
2017-Nov-14 19:30N 10°58' W 074°46'0 0.0
2017-Nov-14 18:59N 10°58' W 074°46'0 0.0
2017-Nov-14 18:30N 10°58' W 074°46'0 0.0
2017-Nov-14 18:00N 10°58' W 074°46'0 0.0
2017-Nov-14 17:30N 10°58' W 074°46'0 0.0
2017-Nov-14 17:00N 10°58' W 074°46'1 1.9
2017-Nov-14 16:30N 10°59' W 074°45'0 0.1
2017-Nov-14 16:00N 10°59' W 074°45'1 1.9
2017-Nov-14 15:30N 10°58' W 074°46'0 0.0
2017-Nov-14 15:00N 10°58' W 074°46'0 0.0
2017-Nov-14 14:30N 10°58' W 074°46'0 0.0
2017-Nov-14 14:00N 10°58' W 074°46'1 1.1
2017-Nov-14 13:30N 10°58' W 074°45'0 0.7
2017-Nov-14 13:00N 10°58' W 074°46'0 0.0
2017-Nov-14 12:30N 10°58' W 074°46'0 0.0
2017-Nov-14 12:00N 10°58' W 074°46'0 0.0
2017-Nov-14 11:30N 10°58' W 074°46'0 0.0
2017-Nov-14 11:00N 10°58' W 074°46'0 0.0
2017-Nov-14 10:30N 10°58' W 074°46'0 0.0
2017-Nov-14 10:00N 10°58' W 074°46'0 0.0
2017-Nov-14 09:30N 10°58' W 074°46'0 0.0
2017-Nov-14 08:07N 10°58' W 074°46'0 0.0
2017-Nov-14 08:00N 10°58' W 074°46'0 0.0
2017-Nov-14 07:30N 10°58' W 074°46'0 0.0
2017-Nov-14 07:00N 10°58' W 074°46'0 0.0
2017-Nov-14 06:30N 10°58' W 074°46'0 0.0
2017-Nov-14 06:00N 10°58' W 074°46'0 0.0
2017-Nov-14 05:30N 10°58' W 074°46'0 0.0
2017-Nov-14 04:59N 10°58' W 074°46'0 0.0
2017-Nov-14 04:30N 10°58' W 074°46'0 0.0
2017-Nov-14 04:00N 10°58' W 074°46'0 0.2
2017-Nov-14 03:30N 10°58' W 074°45'0 0.2
2017-Nov-14 02:58N 10°58' W 074°46'0 0.0
2017-Nov-14 02:30N 10°58' W 074°46'0 0.0
2017-Nov-14 01:59N 10°58' W 074°46'0 0.0
2017-Nov-14 01:30N 10°58' W 074°46'0 0.0
2017-Nov-14 01:00N 10°58' W 074°46'0 0.0
2017-Nov-14 00:30N 10°58' W 074°46'0 0.0
2017-Nov-14 00:00N 10°58' W 074°46'0 0.0
2017-Nov-13 23:30N 10°58' W 074°46'0 0.0
2017-Nov-13 22:58N 10°58' W 074°46'0 0.0
2017-Nov-13 22:30N 10°58' W 074°46'0 0.0
2017-Nov-13 22:00N 10°58' W 074°46'0 0.0
2017-Nov-13 02:00N 10°58' W 074°46'0 0.0
2017-Nov-13 01:30N 10°58' W 074°46'  

Dump ship's entire track history